sensor_id;sensor_type;location;lat;lon;timestamp;pressure;altitude;pressure_sealevel;temperature;humidity
44531;BME280;30240;47.418;0.700;2023-07-24T00:00:34;99665.576171875;;;19.22;78.87
44531;BME280;30240;47.418;0.700;2023-07-24T00:02:59;99660.45532226562;;;19.16;79.02
44531;BME280;30240;47.418;0.700;2023-07-24T00:05:24;99668.18237304688;;;19.23;78.89
44531;BME280;30240;47.418;0.700;2023-07-24T00:07:49;99656.35375976562;;;19.16;79.02
44531;BME280;30240;47.418;0.700;2023-07-24T00:10:14;99646.03271484375;;;19.16;79.06
44531;BME280;30240;47.418;0.700;2023-07-24T00:12:39;99646.03271484375;;;19.16;79.06
44531;BME280;30240;47.418;0.700;2023-07-24T00:15:04;99645.06225585938;;;19.16;79.16
44531;BME280;30240;47.418;0.700;2023-07-24T00:17:28;99650.14038085938;;;19.11;79.37
44531;BME280;30240;47.418;0.700;2023-07-24T00:19:53;99658.86840820312;;;19.11;79.4
44531;BME280;30240;47.418;0.700;2023-07-24T00:22:19;99646.30737304688;;;19.12;79.48
44531;BME280;30240;47.418;0.700;2023-07-24T00:24:44;99650.6103515625;;;19.21;79.47
44531;BME280;30240;47.418;0.700;2023-07-24T00:27:08;99650.6103515625;;;19.21;79.47
44531;BME280;30240;47.418;0.700;2023-07-24T00:29:34;99638.34228515625;;;19.16;79.51
44531;BME280;30240;47.418;0.700;2023-07-24T00:31:59;99635.74829101562;;;19.16;79.65
44531;BME280;30240;47.418;0.700;2023-07-24T00:34:23;99641.15600585938;;;19.18;79.7
44531;BME280;30240;47.418;0.700;2023-07-24T00:36:48;99635.57739257812;;;19.15;79.8
44531;BME280;30240;47.418;0.700;2023-07-24T00:39:14;99635.57739257812;;;19.15;79.8
44531;BME280;30240;47.418;0.700;2023-07-24T00:41:39;99630.52978515625;;;19.16;79.84
44531;BME280;30240;47.418;0.700;2023-07-24T00:44:04;99623.90747070312;;;19.22;79.75
44531;BME280;30240;47.418;0.700;2023-07-24T00:46:29;99628.46069335938;;;19.18;79.91
44531;BME280;30240;47.418;0.700;2023-07-24T00:48:54;99623.0224609375;;;19.19;80.02
44531;BME280;30240;47.418;0.700;2023-07-24T00:51:19;99623.0224609375;;;19.19;80.02
44531;BME280;30240;47.418;0.700;2023-07-24T00:53:44;99616.54663085938;;;19.23;79.99
44531;BME280;30240;47.418;0.700;2023-07-24T00:56:09;99608.642578125;;;19.18;79.99
44531;BME280;30240;47.418;0.700;2023-07-24T00:58:36;99610.74829101562;;;19.14;80.03
44531;BME280;30240;47.418;0.700;2023-07-24T01:00:59;99608.45336914062;;;19.19;80.0
44531;BME280;30240;47.418;0.700;2023-07-24T01:03:33;99608.45336914062;;;19.19;80.0
44531;BME280;30240;47.418;0.700;2023-07-24T01:05:49;99605.70068359375;;;19.22;79.96
44531;BME280;30240;47.418;0.700;2023-07-24T01:08:13;99607.92236328125;;;19.15;80.01
44531;BME280;30240;47.418;0.700;2023-07-24T01:10:39;99591.2353515625;;;19.12;80.03
44531;BME280;30240;47.418;0.700;2023-07-24T01:13:06;99590.625;;;19.21;79.96
44531;BME280;30240;47.418;0.700;2023-07-24T01:15:31;99590.625;;;19.21;79.96
44531;BME280;30240;47.418;0.700;2023-07-24T01:17:59;99583.03833007812;;;19.16;80.18
44531;BME280;30240;47.418;0.700;2023-07-24T01:20:19;99581.04858398438;;;19.11;80.38
44531;BME280;30240;47.418;0.700;2023-07-24T01:22:48;99581.04858398438;;;19.07;80.6
44531;BME280;30240;47.418;0.700;2023-07-24T01:22:57;99581.04858398438;;;19.07;80.6
44531;BME280;30240;47.418;0.700;2023-07-24T01:23:07;99581.04858398438;;;19.07;80.6
44531;BME280;30240;47.418;0.700;2023-07-24T01:25:11;99581.0302734375;;;19.07;80.76
44531;BME280;30240;47.418;0.700;2023-07-24T01:25:18;99581.0302734375;;;19.07;80.76
44531;BME280;30240;47.418;0.700;2023-07-24T01:25:23;99581.0302734375;;;19.07;80.76
44531;BME280;30240;47.418;0.700;2023-07-24T01:27:34;99581.0302734375;;;19.07;80.76
44531;BME280;30240;47.418;0.700;2023-07-24T01:29:59;99579.23583984375;;;19.08;80.72
44531;BME280;30240;47.418;0.700;2023-07-24T01:32:24;99571.435546875;;;19.07;80.83
44531;BME280;30240;47.418;0.700;2023-07-24T01:34:49;99572.28393554688;;;19.07;80.91
44531;BME280;30240;47.418;0.700;2023-07-24T01:37:14;99567.71850585938;;;19.1;81.22
44531;BME280;30240;47.418;0.700;2023-07-24T01:39:40;99567.71850585938;;;19.1;81.22
44531;BME280;30240;47.418;0.700;2023-07-24T01:42:04;99565.20385742188;;;19.01;81.61
44531;BME280;30240;47.418;0.700;2023-07-24T01:44:29;99573.486328125;;;18.91;81.96
44531;BME280;30240;47.418;0.700;2023-07-24T01:46:54;99571.7041015625;;;18.69;82.99
44531;BME280;30240;47.418;0.700;2023-07-24T01:49:19;99570.1171875;;;18.49;84.19
44531;BME280;30240;47.418;0.700;2023-07-24T01:51:43;99570.1171875;;;18.49;84.19
44531;BME280;30240;47.418;0.700;2023-07-24T01:54:09;99564.89868164062;;;18.31;85.3
44531;BME280;30240;47.418;0.700;2023-07-24T01:56:36;99572.67456054688;;;18.28;86.09
44531;BME280;30240;47.418;0.700;2023-07-24T01:58:59;99565.39306640625;;;18.18;86.8
44531;BME280;30240;47.418;0.700;2023-07-24T02:01:24;99563.7939453125;;;18.11;87.38
44531;BME280;30240;47.418;0.700;2023-07-24T02:03:48;99552.23999023438;;;18.0;87.97
44531;BME280;30240;47.418;0.700;2023-07-24T02:06:13;99552.23999023438;;;18.0;87.97
44531;BME280;30240;47.418;0.700;2023-07-24T02:08:39;99554.45556640625;;;17.94;88.38
44531;BME280;30240;47.418;0.700;2023-07-24T02:11:03;99559.82666015625;;;17.96;88.68
44531;BME280;30240;47.418;0.700;2023-07-24T02:13:29;99558.64868164062;;;17.98;88.88
44531;BME280;30240;47.418;0.700;2023-07-24T02:15:54;99554.35791015625;;;17.93;88.8
44531;BME280;30240;47.418;0.700;2023-07-24T02:18:19;99554.35791015625;;;17.93;88.8
44531;BME280;30240;47.418;0.700;2023-07-24T02:20:48;99552.20336914062;;;17.96;88.93
44531;BME280;30240;47.418;0.700;2023-07-24T02:23:09;99547.12524414062;;;17.94;89.13
44531;BME280;30240;47.418;0.700;2023-07-24T02:25:35;99549.81079101562;;;17.91;89.31
44531;BME280;30240;47.418;0.700;2023-07-24T02:27:58;99540.59448242188;;;17.91;89.61
44531;BME280;30240;47.418;0.700;2023-07-24T02:30:23;99540.59448242188;;;17.91;89.61
44531;BME280;30240;47.418;0.700;2023-07-24T02:32:48;99536.80419921875;;;17.89;89.94
44531;BME280;30240;47.418;0.700;2023-07-24T02:35:14;99533.79516601562;;;17.87;90.28
44531;BME280;30240;47.418;0.700;2023-07-24T02:37:38;99544.23217773438;;;17.87;90.57
44531;BME280;30240;47.418;0.700;2023-07-24T02:40:04;99543.65844726562;;;17.85;90.85
44531;BME280;30240;47.418;0.700;2023-07-24T02:42:29;99543.65844726562;;;17.85;90.85
44531;BME280;30240;47.418;0.700;2023-07-24T02:44:53;99544.12231445312;;;17.82;91.07
44531;BME280;30240;47.418;0.700;2023-07-24T02:47:19;99541.13159179688;;;17.8;91.37
44531;BME280;30240;47.418;0.700;2023-07-24T02:49:43;99542.3095703125;;;17.8;91.52
44531;BME280;30240;47.418;0.700;2023-07-24T02:52:09;99539.90478515625;;;17.77;91.47
44531;BME280;30240;47.418;0.700;2023-07-24T02:54:35;99539.90478515625;;;17.77;91.47
44531;BME280;30240;47.418;0.700;2023-07-24T02:57:03;99544.34204101562;;;17.46;91.4
44531;BME280;30240;47.418;0.700;2023-07-24T02:59:23;99546.98486328125;;;17.07;91.27
44531;BME280;30240;47.418;0.700;2023-07-24T03:01:48;99547.01538085938;;;16.9;90.74
44531;BME280;30240;47.418;0.700;2023-07-24T03:04:13;99536.62719726562;;;16.92;90.23
44531;BME280;30240;47.418;0.700;2023-07-24T03:06:39;99536.62719726562;;;16.92;90.23
44531;BME280;30240;47.418;0.700;2023-07-24T03:09:04;99542.27905273438;;;16.94;89.47
44531;BME280;30240;47.418;0.700;2023-07-24T03:11:29;99545.703125;;;17.0;89.37
44531;BME280;30240;47.418;0.700;2023-07-24T03:13:53;99540.12451171875;;;16.92;89.14
44531;BME280;30240;47.418;0.700;2023-07-24T03:16:18;99532.79418945312;;;16.92;89.12
44531;BME280;30240;47.418;0.700;2023-07-24T03:18:43;99532.79418945312;;;16.92;89.12
44531;BME280;30240;47.418;0.700;2023-07-24T03:21:09;99537.35961914062;;;16.8;89.6
44531;BME280;30240;47.418;0.700;2023-07-24T03:23:33;99532.4462890625;;;16.79;89.97
44531;BME280;30240;47.418;0.700;2023-07-24T03:25:58;99525.84228515625;;;16.83;89.9
44531;BME280;30240;47.418;0.700;2023-07-24T03:28:23;99527.57568359375;;;16.83;89.98
44531;BME280;30240;47.418;0.700;2023-07-24T03:30:49;99528.68041992188;;;16.8;89.89
44531;BME280;30240;47.418;0.700;2023-07-24T03:33:14;99528.68041992188;;;16.8;89.89
44531;BME280;30240;47.418;0.700;2023-07-24T03:35:39;99528.94287109375;;;16.78;89.84
44531;BME280;30240;47.418;0.700;2023-07-24T03:38:03;99527.9541015625;;;16.75;89.89
44531;BME280;30240;47.418;0.700;2023-07-24T03:40:28;99512.353515625;;;16.73;90.02
44531;BME280;30240;47.418;0.700;2023-07-24T03:42:54;99515.35034179688;;;16.83;90.04
44531;BME280;30240;47.418;0.700;2023-07-24T03:45:19;99515.35034179688;;;16.83;90.04
44531;BME280;30240;47.418;0.700;2023-07-24T03:47:44;99510.85205078125;;;16.82;90.03
44531;BME280;30240;47.418;0.700;2023-07-24T03:50:09;99518.71948242188;;;16.85;90.08
44531;BME280;30240;47.418;0.700;2023-07-24T03:52:33;99520.9716796875;;;16.8;90.02
44531;BME280;30240;47.418;0.700;2023-07-24T03:54:59;99521.5087890625;;;16.9;90.22
44531;BME280;30240;47.418;0.700;2023-07-24T03:57:23;99521.5087890625;;;16.9;90.22
44531;BME280;30240;47.418;0.700;2023-07-24T03:59:49;99528.22875976562;;;16.8;90.14
44531;BME280;30240;47.418;0.700;2023-07-24T04:02:13;99527.15454101562;;;16.93;90.17
44531;BME280;30240;47.418;0.700;2023-07-24T04:04:38;99520.12329101562;;;16.93;90.1
44531;BME280;30240;47.418;0.700;2023-07-24T04:07:04;99524.91455078125;;;16.86;90.04
44531;BME280;30240;47.418;0.700;2023-07-24T04:09:29;99524.91455078125;;;16.86;90.04
44531;BME280;30240;47.418;0.700;2023-07-24T04:11:54;99526.513671875;;;16.94;89.99
44531;BME280;30240;47.418;0.700;2023-07-24T04:14:19;99534.43603515625;;;16.89;89.89
44531;BME280;30240;47.418;0.700;2023-07-24T04:16:44;99535.77270507812;;;16.89;89.83
44531;BME280;30240;47.418;0.700;2023-07-24T04:19:08;99539.990234375;;;16.71;89.54
44531;BME280;30240;47.418;0.700;2023-07-24T04:21:34;99539.990234375;;;16.71;89.54
44531;BME280;30240;47.418;0.700;2023-07-24T04:23:59;99540.185546875;;;16.79;89.66
44531;BME280;30240;47.418;0.700;2023-07-24T04:26:23;99546.29516601562;;;16.83;89.6
44531;BME280;30240;47.418;0.700;2023-07-24T04:28:48;99548.4375;;;16.82;89.66
44531;BME280;30240;47.418;0.700;2023-07-24T04:31:13;99554.0283203125;;;16.78;89.5
44531;BME280;30240;47.418;0.700;2023-07-24T04:33:39;99554.0283203125;;;16.78;89.5
44531;BME280;30240;47.418;0.700;2023-07-24T04:36:04;99554.70581054688;;;16.78;89.48
44531;BME280;30240;47.418;0.700;2023-07-24T04:38:28;99560.77880859375;;;16.78;89.39
44531;BME280;30240;47.418;0.700;2023-07-24T04:40:53;99564.31274414062;;;16.76;89.2
44531;BME280;30240;47.418;0.700;2023-07-24T04:43:18;99557.09228515625;;;16.76;89.09
44531;BME280;30240;47.418;0.700;2023-07-24T04:45:43;99557.09228515625;;;16.76;89.09
44531;BME280;30240;47.418;0.700;2023-07-24T04:48:08;99562.13989257812;;;16.71;89.0
44531;BME280;30240;47.418;0.700;2023-07-24T04:50:34;99563.17749023438;;;16.68;88.56
44531;BME280;30240;47.418;0.700;2023-07-24T04:52:58;99560.84594726562;;;16.82;88.61
44531;BME280;30240;47.418;0.700;2023-07-24T04:55:24;99560.595703125;;;16.82;88.34
44531;BME280;30240;47.418;0.700;2023-07-24T04:57:48;99560.595703125;;;16.82;88.34
44531;BME280;30240;47.418;0.700;2023-07-24T05:00:14;99565.70434570312;;;16.75;88.19
44531;BME280;30240;47.418;0.700;2023-07-24T05:02:38;99558.56323242188;;;16.8;88.31
44531;BME280;30240;47.418;0.700;2023-07-24T05:05:04;99561.8408203125;;;16.86;88.34
44531;BME280;30240;47.418;0.700;2023-07-24T05:07:29;99559.65576171875;;;16.83;88.36
44531;BME280;30240;47.418;0.700;2023-07-24T05:09:53;99560.595703125;;;16.79;88.44
44531;BME280;30240;47.418;0.700;2023-07-24T05:12:18;99560.595703125;;;16.79;88.44
44531;BME280;30240;47.418;0.700;2023-07-24T05:14:43;99555.60913085938;;;16.87;88.6
44531;BME280;30240;47.418;0.700;2023-07-24T05:17:08;99559.9853515625;;;16.93;88.59
44531;BME280;30240;47.418;0.700;2023-07-24T05:19:33;99558.7158203125;;;16.92;88.65
44531;BME280;30240;47.418;0.700;2023-07-24T05:21:58;99561.9140625;;;16.94;88.58
44531;BME280;30240;47.418;0.700;2023-07-24T05:24:24;99561.9140625;;;16.94;88.58
44531;BME280;30240;47.418;0.700;2023-07-24T05:26:49;99562.03002929688;;;16.92;88.88
44531;BME280;30240;47.418;0.700;2023-07-24T05:29:13;99560.400390625;;;17.03;88.49
44531;BME280;30240;47.418;0.700;2023-07-24T05:31:39;99568.5302734375;;;17.11;88.77
44531;BME280;30240;47.418;0.700;2023-07-24T05:34:03;99570.8251953125;;;16.99;88.69
44531;BME280;30240;47.418;0.700;2023-07-24T05:36:29;99570.8251953125;;;16.99;88.69
44531;BME280;30240;47.418;0.700;2023-07-24T05:38:53;99566.56494140625;;;17.1;88.8
44531;BME280;30240;47.418;0.700;2023-07-24T05:41:18;99566.7724609375;;;17.09;88.59
44531;BME280;30240;47.418;0.700;2023-07-24T05:43:43;99563.47045898438;;;17.1;88.55
44531;BME280;30240;47.418;0.700;2023-07-24T05:46:08;99566.37573242188;;;17.09;88.33
44531;BME280;30240;47.418;0.700;2023-07-24T05:48:33;99566.37573242188;;;17.09;88.33
44531;BME280;30240;47.418;0.700;2023-07-24T05:50:59;99568.65844726562;;;17.11;88.16
44531;BME280;30240;47.418;0.700;2023-07-24T05:53:24;99565.12451171875;;;17.1;88.2
44531;BME280;30240;47.418;0.700;2023-07-24T05:55:57;99558.59375;;;17.13;87.49
44531;BME280;30240;47.418;0.700;2023-07-24T05:58:14;99565.64331054688;;;17.24;87.38
44531;BME280;30240;47.418;0.700;2023-07-24T06:00:39;99565.64331054688;;;17.24;87.38
44531;BME280;30240;47.418;0.700;2023-07-24T06:03:04;99573.59619140625;;;17.21;87.79
44531;BME280;30240;47.418;0.700;2023-07-24T06:05:28;99574.81079101562;;;17.14;87.41
44531;BME280;30240;47.418;0.700;2023-07-24T06:07:53;99576.4404296875;;;17.14;87.44
44531;BME280;30240;47.418;0.700;2023-07-24T06:10:19;99581.54907226562;;;17.48;87.27
44531;BME280;30240;47.418;0.700;2023-07-24T06:12:43;99581.54907226562;;;17.48;87.27
44531;BME280;30240;47.418;0.700;2023-07-24T06:15:09;99584.07592773438;;;17.26;86.84
44531;BME280;30240;47.418;0.700;2023-07-24T06:17:33;99582.0556640625;;;17.34;87.06
44531;BME280;30240;47.418;0.700;2023-07-24T06:19:58;99578.50952148438;;;17.53;86.64
44531;BME280;30240;47.418;0.700;2023-07-24T06:22:24;99581.48193359375;;;17.53;86.25
44531;BME280;30240;47.418;0.700;2023-07-24T06:24:49;99581.48193359375;;;17.53;86.25
44531;BME280;30240;47.418;0.700;2023-07-24T06:27:14;99585.99853515625;;;17.34;86.03
44531;BME280;30240;47.418;0.700;2023-07-24T06:29:39;99588.818359375;;;17.62;86.6
44531;BME280;30240;47.418;0.700;2023-07-24T06:32:04;99585.52856445312;;;17.58;86.24
44531;BME280;30240;47.418;0.700;2023-07-24T06:34:29;99590.7470703125;;;17.53;86.65
44531;BME280;30240;47.418;0.700;2023-07-24T06:36:53;99589.08081054688;;;17.34;86.31
44531;BME280;30240;47.418;0.700;2023-07-24T06:39:19;99589.08081054688;;;17.34;86.31
44531;BME280;30240;47.418;0.700;2023-07-24T06:41:44;99585.888671875;;;17.72;86.51
44531;BME280;30240;47.418;0.700;2023-07-24T06:44:08;99589.04418945312;;;17.55;86.51
44531;BME280;30240;47.418;0.700;2023-07-24T06:46:33;99594.98291015625;;;17.51;86.16
44531;BME280;30240;47.418;0.700;2023-07-24T06:48:58;99588.671875;;;17.68;85.58
44531;BME280;30240;47.418;0.700;2023-07-24T06:51:24;99588.671875;;;17.68;85.58
44531;BME280;30240;47.418;0.700;2023-07-24T06:53:49;99591.77856445312;;;17.63;86.17
44531;BME280;30240;47.418;0.700;2023-07-24T06:56:14;99596.18530273438;;;17.9;86.09
44531;BME280;30240;47.418;0.700;2023-07-24T06:58:39;99589.45922851562;;;18.38;84.51
44531;BME280;30240;47.418;0.700;2023-07-24T07:01:05;99600.9033203125;;;18.2;84.51
44531;BME280;30240;47.418;0.700;2023-07-24T07:03:29;99600.9033203125;;;18.2;84.51
44531;BME280;30240;47.418;0.700;2023-07-24T07:05:58;99599.67041015625;;;17.98;84.84
44531;BME280;30240;47.418;0.700;2023-07-24T07:08:19;99610.18676757812;;;18.1;85.2
44531;BME280;30240;47.418;0.700;2023-07-24T07:10:43;99593.64013671875;;;17.7;85.2
44531;BME280;30240;47.418;0.700;2023-07-24T07:13:09;99604.63256835938;;;17.69;85.0
44531;BME280;30240;47.418;0.700;2023-07-24T07:15:35;99604.63256835938;;;17.69;85.0
44531;BME280;30240;47.418;0.700;2023-07-24T07:17:59;99602.15454101562;;;17.75;83.89
44531;BME280;30240;47.418;0.700;2023-07-24T07:20:24;99613.24462890625;;;17.86;83.7
44531;BME280;30240;47.418;0.700;2023-07-24T07:22:48;99617.529296875;;;17.98;83.14
44531;BME280;30240;47.418;0.700;2023-07-24T07:25:14;99611.669921875;;;18.24;82.05
44531;BME280;30240;47.418;0.700;2023-07-24T07:27:38;99611.669921875;;;18.24;82.05
44531;BME280;30240;47.418;0.700;2023-07-24T07:30:04;99614.16625976562;;;18.04;82.78
44531;BME280;30240;47.418;0.700;2023-07-24T07:32:28;99621.17309570312;;;18.03;82.4
44531;BME280;30240;47.418;0.700;2023-07-24T07:34:53;99604.23583984375;;;18.07;82.25
44531;BME280;30240;47.418;0.700;2023-07-24T07:37:18;99589.6728515625;;;18.49;81.1
44531;BME280;30240;47.418;0.700;2023-07-24T07:39:44;99589.6728515625;;;18.49;81.1
44531;BME280;30240;47.418;0.700;2023-07-24T07:42:08;99586.82861328125;;;19.0;80.65
44531;BME280;30240;47.418;0.700;2023-07-24T07:44:33;99592.07763671875;;;19.25;80.14
44531;BME280;30240;47.418;0.700;2023-07-24T07:46:58;99602.23999023438;;;19.1;79.47
44531;BME280;30240;47.418;0.700;2023-07-24T07:49:23;99594.76318359375;;;18.93;79.98
44531;BME280;30240;47.418;0.700;2023-07-24T07:51:48;99594.76318359375;;;18.93;79.98
44531;BME280;30240;47.418;0.700;2023-07-24T07:54:13;99581.15844726562;;;19.23;79.7
44531;BME280;30240;47.418;0.700;2023-07-24T07:56:38;99589.404296875;;;19.3;79.79
44531;BME280;30240;47.418;0.700;2023-07-24T07:59:03;99587.255859375;;;19.22;79.89
44531;BME280;30240;47.418;0.700;2023-07-24T08:01:28;99576.66625976562;;;19.69;79.51
44531;BME280;30240;47.418;0.700;2023-07-24T08:03:53;99576.66625976562;;;19.69;79.51
44531;BME280;30240;47.418;0.700;2023-07-24T08:06:18;99581.48193359375;;;19.91;78.65
44531;BME280;30240;47.418;0.700;2023-07-24T08:08:43;99584.67407226562;;;19.28;79.6
44531;BME280;30240;47.418;0.700;2023-07-24T08:11:08;99574.35913085938;;;19.05;79.64
44531;BME280;30240;47.418;0.700;2023-07-24T08:13:34;99569.970703125;;;19.73;78.59
44531;BME280;30240;47.418;0.700;2023-07-24T08:15:58;99569.189453125;;;19.01;78.96
44531;BME280;30240;47.418;0.700;2023-07-24T08:18:23;99569.189453125;;;19.01;78.96
44531;BME280;30240;47.418;0.700;2023-07-24T08:20:48;99563.78784179688;;;19.71;78.61
44531;BME280;30240;47.418;0.700;2023-07-24T08:23:13;99564.111328125;;;20.63;76.42
44531;BME280;30240;47.418;0.700;2023-07-24T08:25:38;99565.04516601562;;;20.3;76.86
44531;BME280;30240;47.418;0.700;2023-07-24T08:28:04;99568.00537109375;;;20.19;77.09
44531;BME280;30240;47.418;0.700;2023-07-24T08:30:28;99568.00537109375;;;20.19;77.09
44531;BME280;30240;47.418;0.700;2023-07-24T08:32:53;99559.56420898438;;;20.63;75.42
44531;BME280;30240;47.418;0.700;2023-07-24T08:35:18;99551.61743164062;;;20.32;75.28
44531;BME280;30240;47.418;0.700;2023-07-24T08:37:43;99529.09545898438;;;20.89;74.25
44531;BME280;30240;47.418;0.700;2023-07-24T08:40:09;99522.34497070312;;;20.78;73.94
44531;BME280;30240;47.418;0.700;2023-07-24T08:42:34;99522.34497070312;;;20.78;73.94
44531;BME280;30240;47.418;0.700;2023-07-24T08:44:59;99539.3310546875;;;20.65;74.66
44531;BME280;30240;47.418;0.700;2023-07-24T08:47:24;99552.59399414062;;;20.25;74.92
44531;BME280;30240;47.418;0.700;2023-07-24T08:49:50;99549.27978515625;;;20.29;73.33
44531;BME280;30240;47.418;0.700;2023-07-24T08:52:14;99552.54516601562;;;21.0;71.09
44531;BME280;30240;47.418;0.700;2023-07-24T08:54:39;99552.54516601562;;;21.0;71.09
44531;BME280;30240;47.418;0.700;2023-07-24T08:57:04;99590.234375;;;20.5;72.68
44531;BME280;30240;47.418;0.700;2023-07-24T08:59:28;99584.9365234375;;;21.37;70.72
44531;BME280;30240;47.418;0.700;2023-07-24T09:01:53;99581.65893554688;;;21.66;70.27
44531;BME280;30240;47.418;0.700;2023-07-24T09:04:19;99598.15063476562;;;21.61;71.75
44531;BME280;30240;47.418;0.700;2023-07-24T09:06:45;99598.15063476562;;;21.61;71.75
44531;BME280;30240;47.418;0.700;2023-07-24T09:09:12;99620.42846679688;;;20.68;73.34
44531;BME280;30240;47.418;0.700;2023-07-24T09:11:45;99612.20092773438;;;20.04;74.38
44531;BME280;30240;47.418;0.700;2023-07-24T09:13:58;99604.5654296875;;;20.18;73.5
44531;BME280;30240;47.418;0.700;2023-07-24T09:16:25;99596.28295898438;;;21.53;70.02
44531;BME280;30240;47.418;0.700;2023-07-24T09:18:49;99596.28295898438;;;21.53;70.02
44531;BME280;30240;47.418;0.700;2023-07-24T09:21:13;99589.64233398438;;;21.19;70.08
44531;BME280;30240;47.418;0.700;2023-07-24T09:23:39;99593.310546875;;;20.92;70.64
44531;BME280;30240;47.418;0.700;2023-07-24T09:26:05;99607.63549804688;;;21.26;70.58
44531;BME280;30240;47.418;0.700;2023-07-24T09:28:28;99599.755859375;;;21.26;69.93
44531;BME280;30240;47.418;0.700;2023-07-24T09:30:55;99599.755859375;;;21.26;69.93
44531;BME280;30240;47.418;0.700;2023-07-24T09:33:18;99599.20043945312;;;20.92;71.75
44531;BME280;30240;47.418;0.700;2023-07-24T09:35:43;99607.470703125;;;20.11;74.04
44531;BME280;30240;47.418;0.700;2023-07-24T09:38:10;99616.29638671875;;;20.32;73.27
44531;BME280;30240;47.418;0.700;2023-07-24T09:40:38;99611.32202148438;;;20.84;72.52
44531;BME280;30240;47.418;0.700;2023-07-24T09:42:59;99616.12548828125;;;20.33;73.01
44531;BME280;30240;47.418;0.700;2023-07-24T09:45:25;99616.12548828125;;;20.33;73.01
44531;BME280;30240;47.418;0.700;2023-07-24T09:47:49;99628.14331054688;;;20.57;72.81
44531;BME280;30240;47.418;0.700;2023-07-24T09:50:13;99612.39624023438;;;21.75;69.32
44531;BME280;30240;47.418;0.700;2023-07-24T09:52:40;99602.685546875;;;21.43;68.56
44531;BME280;30240;47.418;0.700;2023-07-24T09:55:08;99600.29907226562;;;21.81;68.2
44531;BME280;30240;47.418;0.700;2023-07-24T09:57:29;99600.29907226562;;;21.81;68.2
44531;BME280;30240;47.418;0.700;2023-07-24T09:59:54;99600.048828125;;;23.22;64.45
44531;BME280;30240;47.418;0.700;2023-07-24T10:02:19;99599.0478515625;;;23.28;62.83
44531;BME280;30240;47.418;0.700;2023-07-24T10:04:44;99590.15502929688;;;23.32;63.97
44531;BME280;30240;47.418;0.700;2023-07-24T10:07:08;99598.32763671875;;;22.1;66.39
44531;BME280;30240;47.418;0.700;2023-07-24T10:09:33;99598.32763671875;;;22.1;66.39
44531;BME280;30240;47.418;0.700;2023-07-24T10:12:00;99594.78149414062;;;21.66;68.39
44531;BME280;30240;47.418;0.700;2023-07-24T10:14:24;99606.21948242188;;;21.47;68.16
44531;BME280;30240;47.418;0.700;2023-07-24T10:16:48;99606.5185546875;;;21.79;67.28
44531;BME280;30240;47.418;0.700;2023-07-24T10:19:14;99595.06225585938;;;21.58;67.36
44531;BME280;30240;47.418;0.700;2023-07-24T10:21:44;99595.06225585938;;;21.58;67.36
44531;BME280;30240;47.418;0.700;2023-07-24T10:24:04;99590.41137695312;;;22.4;65.61
44531;BME280;30240;47.418;0.700;2023-07-24T10:26:29;99585.73608398438;;;23.73;62.92
44531;BME280;30240;47.418;0.700;2023-07-24T10:28:54;99597.607421875;;;22.28;64.65
44531;BME280;30240;47.418;0.700;2023-07-24T10:31:20;99579.57763671875;;;23.52;61.62
44531;BME280;30240;47.418;0.700;2023-07-24T10:33:45;99579.57763671875;;;23.52;61.62
44531;BME280;30240;47.418;0.700;2023-07-24T10:36:10;99592.58422851562;;;23.62;62.18
44531;BME280;30240;47.418;0.700;2023-07-24T10:38:35;99589.92309570312;;;24.48;61.29
44531;BME280;30240;47.418;0.700;2023-07-24T10:41:01;99586.46850585938;;;23.73;61.88
44531;BME280;30240;47.418;0.700;2023-07-24T10:43:23;99582.421875;;;23.15;61.56
44531;BME280;30240;47.418;0.700;2023-07-24T10:45:50;99582.421875;;;23.15;61.56
44531;BME280;30240;47.418;0.700;2023-07-24T10:48:14;99576.84326171875;;;23.0;62.95
44531;BME280;30240;47.418;0.700;2023-07-24T10:50:39;99578.22875976562;;;23.07;60.98
44531;BME280;30240;47.418;0.700;2023-07-24T10:53:03;99597.18627929688;;;23.41;62.66
44531;BME280;30240;47.418;0.700;2023-07-24T10:55:28;99594.72045898438;;;22.2;64.0
44531;BME280;30240;47.418;0.700;2023-07-24T10:57:53;99594.72045898438;;;22.2;64.0
44531;BME280;30240;47.418;0.700;2023-07-24T11:00:18;99602.62451171875;;;22.33;64.6
44531;BME280;30240;47.418;0.700;2023-07-24T11:02:44;99605.62744140625;;;22.51;65.27
44531;BME280;30240;47.418;0.700;2023-07-24T11:05:08;99608.78295898438;;;22.61;65.29
44531;BME280;30240;47.418;0.700;2023-07-24T11:07:34;99591.796875;;;22.49;64.52
44531;BME280;30240;47.418;0.700;2023-07-24T11:09:58;99591.796875;;;22.49;64.52
44531;BME280;30240;47.418;0.700;2023-07-24T11:12:23;99588.65356445312;;;22.63;64.86
44531;BME280;30240;47.418;0.700;2023-07-24T11:14:49;99582.1533203125;;;24.11;60.51
44531;BME280;30240;47.418;0.700;2023-07-24T11:17:13;99584.17358398438;;;22.85;64.41
44531;BME280;30240;47.418;0.700;2023-07-24T11:19:38;99596.6552734375;;;22.68;65.16
44531;BME280;30240;47.418;0.700;2023-07-24T11:22:04;99603.93676757812;;;22.03;65.64